Salt Lake City, Utah
Traffic Map
Current Weather Conditions
Salt Lake City, Utah
Broken Clouds
Broken Clouds
47°
Feels Like: 40°
Wind Chill: 40° Ceiling: 11000
Heat Index: 47° Visibility: 10mi
Dew Point: 34° Wind: 16mph
Humidity: 61% Direction: 170° (S)
Pressure: 30in Gusts: 24mph
Raw Report DataKSLC 201454Z 17014G21KT 10SM FEW050 SCT080 BKN110 08/01 A3000 RMK AO2 SLP145 ACSL DSNT SE T00830011 51015
Traffic Incident Summary
Active as of:
Severity:
Category:
InformationThere was an issue retrieving the traffic information for this location. Please try a different location or try again shortly.
Advertisements
Track Severe Weather on mobile